sensor_id;sensor_type;location;lat;lon;timestamp;P1;durP1;ratioP1;P2;durP2;ratioP2
35971;SDS011;22052;0.000;0.000;2023-04-03T00:02:23;0.25;;;0.25;;
35971;SDS011;22052;0.000;0.000;2023-04-03T00:04:49;0.63;;;0.30;;
35971;SDS011;22052;0.000;0.000;2023-04-03T00:07:15;0.40;;;0.30;;
35971;SDS011;22052;0.000;0.000;2023-04-03T00:09:41;0.40;;;0.30;;
35971;SDS011;22052;0.000;0.000;2023-04-03T00:12:07;0.20;;;0.20;;
35971;SDS011;22052;0.000;0.000;2023-04-03T00:14:33;0.40;;;0.30;;
35971;SDS011;22052;0.000;0.000;2023-04-03T00:16:59;0.40;;;0.30;;
35971;SDS011;22052;0.000;0.000;2023-04-03T00:19:25;0.30;;;0.30;;
35971;SDS011;22052;0.000;0.000;2023-04-03T00:21:51;0.22;;;0.20;;
35971;SDS011;22052;0.000;0.000;2023-04-03T00:24:18;0.30;;;0.25;;
35971;SDS011;22052;0.000;0.000;2023-04-03T00:26:44;0.57;;;0.30;;
35971;SDS011;22052;0.000;0.000;2023-04-03T00:29:10;0.30;;;0.30;;
35971;SDS011;22052;0.000;0.000;2023-04-03T00:31:36;0.52;;;0.30;;
35971;SDS011;22052;0.000;0.000;2023-04-03T00:34:03;0.73;;;0.45;;
35971;SDS011;22052;0.000;0.000;2023-04-03T00:36:29;0.30;;;0.30;;
35971;SDS011;22052;0.000;0.000;2023-04-03T00:38:55;0.30;;;0.30;;
35971;SDS011;22052;0.000;0.000;2023-04-03T00:41:21;0.40;;;0.20;;
35971;SDS011;22052;0.000;0.000;2023-04-03T00:43:47;0.30;;;0.30;;
35971;SDS011;22052;0.000;0.000;2023-04-03T00:46:13;0.35;;;0.30;;
35971;SDS011;22052;0.000;0.000;2023-04-03T00:48:46;0.30;;;0.30;;
35971;SDS011;22052;0.000;0.000;2023-04-03T00:51:17;0.22;;;0.22;;
35971;SDS011;22052;0.000;0.000;2023-04-03T00:53:49;0.30;;;0.30;;
35971;SDS011;22052;0.000;0.000;2023-04-03T00:56:16;0.40;;;0.40;;
35971;SDS011;22052;0.000;0.000;2023-04-03T00:58:45;0.30;;;0.22;;
35971;SDS011;22052;0.000;0.000;2023-04-03T01:01:13;0.30;;;0.30;;
35971;SDS011;22052;0.000;0.000;2023-04-03T01:03:40;0.20;;;0.20;;
35971;SDS011;22052;0.000;0.000;2023-04-03T01:06:06;0.40;;;0.20;;
35971;SDS011;22052;0.000;0.000;2023-04-03T01:08:32;0.32;;;0.30;;
35971;SDS011;22052;0.000;0.000;2023-04-03T01:10:59;0.40;;;0.30;;
35971;SDS011;22052;0.000;0.000;2023-04-03T01:13:27;0.25;;;0.25;;
35971;SDS011;22052;0.000;0.000;2023-04-03T01:15:54;0.55;;;0.40;;
35971;SDS011;22052;0.000;0.000;2023-04-03T01:18:21;0.20;;;0.20;;
35971;SDS011;22052;0.000;0.000;2023-04-03T01:25:48;0.77;;;0.40;;
35971;SDS011;22052;0.000;0.000;2023-04-03T01:28:19;0.63;;;0.35;;
35971;SDS011;22052;0.000;0.000;2023-04-03T01:30:47;0.40;;;0.40;;
35971;SDS011;22052;0.000;0.000;2023-04-03T01:33:14;0.38;;;0.35;;
35971;SDS011;22052;0.000;0.000;2023-04-03T01:35:40;0.30;;;0.30;;
35971;SDS011;22052;0.000;0.000;2023-04-03T01:38:07;0.20;;;0.20;;
35971;SDS011;22052;0.000;0.000;2023-04-03T01:40:33;0.40;;;0.30;;
35971;SDS011;22052;0.000;0.000;2023-04-03T01:42:59;0.50;;;0.50;;
35971;SDS011;22052;0.000;0.000;2023-04-03T01:45:25;0.30;;;0.30;;
35971;SDS011;22052;0.000;0.000;2023-04-03T01:47:51;0.65;;;0.30;;
35971;SDS011;22052;0.000;0.000;2023-04-03T01:50:17;0.35;;;0.32;;
35971;SDS011;22052;0.000;0.000;2023-04-03T01:52:43;0.30;;;0.30;;
35971;SDS011;22052;0.000;0.000;2023-04-03T01:55:10;0.30;;;0.30;;
35971;SDS011;22052;0.000;0.000;2023-04-03T01:57:36;0.30;;;0.30;;
35971;SDS011;22052;0.000;0.000;2023-04-03T02:00:02;0.30;;;0.30;;
35971;SDS011;22052;0.000;0.000;2023-04-03T02:02:28;0.30;;;0.30;;
35971;SDS011;22052;0.000;0.000;2023-04-03T02:04:55;0.22;;;0.22;;
35971;SDS011;22052;0.000;0.000;2023-04-03T02:07:21;0.30;;;0.30;;
35971;SDS011;22052;0.000;0.000;2023-04-03T02:09:47;0.47;;;0.20;;
35971;SDS011;22052;0.000;0.000;2023-04-03T02:12:13;0.32;;;0.25;;
35971;SDS011;22052;0.000;0.000;2023-04-03T02:14:39;0.73;;;0.40;;
35971;SDS011;22052;0.000;0.000;2023-04-03T02:17:05;0.35;;;0.30;;
35971;SDS011;22052;0.000;0.000;2023-04-03T02:19:34;0.32;;;0.30;;
35971;SDS011;22052;0.000;0.000;2023-04-03T02:22:01;0.25;;;0.22;;
35971;SDS011;22052;0.000;0.000;2023-04-03T02:24:27;0.22;;;0.20;;
35971;SDS011;22052;0.000;0.000;2023-04-03T02:26:53;0.20;;;0.20;;
35971;SDS011;22052;0.000;0.000;2023-04-03T02:29:19;0.30;;;0.30;;
35971;SDS011;22052;0.000;0.000;2023-04-03T02:31:45;0.52;;;0.30;;
35971;SDS011;22052;0.000;0.000;2023-04-03T02:34:12;0.20;;;0.20;;
35971;SDS011;22052;0.000;0.000;2023-04-03T02:36:38;0.20;;;0.20;;
35971;SDS011;22052;0.000;0.000;2023-04-03T02:39:04;0.30;;;0.30;;
35971;SDS011;22052;0.000;0.000;2023-04-03T02:41:30;0.40;;;0.30;;
35971;SDS011;22052;0.000;0.000;2023-04-03T02:44:04;0.88;;;0.30;;
35971;SDS011;22052;0.000;0.000;2023-04-03T02:46:31;0.50;;;0.25;;
35971;SDS011;22052;0.000;0.000;2023-04-03T02:48:57;0.30;;;0.20;;
35971;SDS011;22052;0.000;0.000;2023-04-03T02:51:23;0.25;;;0.25;;
35971;SDS011;22052;0.000;0.000;2023-04-03T02:53:50;0.40;;;0.30;;
35971;SDS011;22052;0.000;0.000;2023-04-03T02:56:16;0.30;;;0.30;;
35971;SDS011;22052;0.000;0.000;2023-04-03T02:58:43;0.28;;;0.28;;
35971;SDS011;22052;0.000;0.000;2023-04-03T03:01:09;0.40;;;0.35;;
35971;SDS011;22052;0.000;0.000;2023-04-03T03:03:36;0.63;;;0.38;;
35971;SDS011;22052;0.000;0.000;2023-04-03T03:08:28;0.20;;;0.20;;
35971;SDS011;22052;0.000;0.000;2023-04-03T03:10:54;0.30;;;0.30;;
35971;SDS011;22052;0.000;0.000;2023-04-03T03:13:20;0.30;;;0.30;;
35971;SDS011;22052;0.000;0.000;2023-04-03T03:15:47;0.20;;;0.20;;
35971;SDS011;22052;0.000;0.000;2023-04-03T03:18:13;0.80;;;0.40;;
35971;SDS011;22052;0.000;0.000;2023-04-03T03:20:39;0.35;;;0.20;;
35971;SDS011;22052;0.000;0.000;2023-04-03T03:23:05;0.20;;;0.20;;
35971;SDS011;22052;0.000;0.000;2023-04-03T03:25:31;0.47;;;0.32;;
35971;SDS011;22052;0.000;0.000;2023-04-03T03:27:57;1.02;;;0.30;;
35971;SDS011;22052;0.000;0.000;2023-04-03T03:30:23;0.30;;;0.30;;
35971;SDS011;22052;0.000;0.000;2023-04-03T03:32:50;0.50;;;0.40;;
35971;SDS011;22052;0.000;0.000;2023-04-03T03:35:16;0.60;;;0.30;;
35971;SDS011;22052;0.000;0.000;2023-04-03T03:37:42;1.20;;;0.30;;
35971;SDS011;22052;0.000;0.000;2023-04-03T03:40:08;2.40;;;0.50;;
35971;SDS011;22052;0.000;0.000;2023-04-03T03:42:36;0.63;;;0.38;;
35971;SDS011;22052;0.000;0.000;2023-04-03T03:45:02;0.40;;;0.30;;
35971;SDS011;22052;0.000;0.000;2023-04-03T03:47:28;1.50;;;0.40;;
35971;SDS011;22052;0.000;0.000;2023-04-03T03:49:54;0.52;;;0.28;;
35971;SDS011;22052;0.000;0.000;2023-04-03T03:52:21;1.33;;;0.50;;
35971;SDS011;22052;0.000;0.000;2023-04-03T03:54:47;2.35;;;0.40;;
35971;SDS011;22052;0.000;0.000;2023-04-03T03:57:13;5.55;;;0.60;;
35971;SDS011;22052;0.000;0.000;2023-04-03T03:59:40;2.47;;;0.80;;
35971;SDS011;22052;0.000;0.000;2023-04-03T04:02:07;0.93;;;0.50;;
35971;SDS011;22052;0.000;0.000;2023-04-03T04:04:33;2.78;;;0.70;;
35971;SDS011;22052;0.000;0.000;2023-04-03T04:06:59;2.75;;;0.80;;
35971;SDS011;22052;0.000;0.000;2023-04-03T04:09:25;4.57;;;0.52;;
35971;SDS011;22052;0.000;0.000;2023-04-03T04:11:52;3.40;;;0.68;;
35971;SDS011;22052;0.000;0.000;2023-04-03T04:14:18;2.05;;;0.50;;
35971;SDS011;22052;0.000;0.000;2023-04-03T04:16:45;2.55;;;0.70;;
35971;SDS011;22052;0.000;0.000;2023-04-03T04:19:12;2.17;;;0.60;;
35971;SDS011;22052;0.000;0.000;2023-04-03T04:21:38;3.15;;;0.68;;
35971;SDS011;22052;0.000;0.000;2023-04-03T04:24:04;4.53;;;0.77;;
35971;SDS011;22052;0.000;0.000;2023-04-03T04:26:31;2.88;;;0.68;;
35971;SDS011;22052;0.000;0.000;2023-04-03T04:28:57;2.30;;;0.70;;
35971;SDS011;22052;0.000;0.000;2023-04-03T04:31:23;3.30;;;0.85;;
35971;SDS011;22052;0.000;0.000;2023-04-03T04:33:49;2.75;;;0.70;;
35971;SDS011;22052;0.000;0.000;2023-04-03T04:36:15;5.43;;;1.05;;
35971;SDS011;22052;0.000;0.000;2023-04-03T04:38:41;4.65;;;0.80;;
35971;SDS011;22052;0.000;0.000;2023-04-03T04:41:08;2.67;;;0.75;;
35971;SDS011;22052;0.000;0.000;2023-04-03T04:43:34;4.80;;;0.80;;
35971;SDS011;22052;0.000;0.000;2023-04-03T04:46:09;3.78;;;1.05;;
35971;SDS011;22052;0.000;0.000;2023-04-03T04:48:39;4.03;;;0.80;;
35971;SDS011;22052;0.000;0.000;2023-04-03T04:51:06;1.98;;;0.52;;
35971;SDS011;22052;0.000;0.000;2023-04-03T04:53:32;3.13;;;0.90;;
35971;SDS011;22052;0.000;0.000;2023-04-03T04:55:58;1.30;;;0.60;;
35971;SDS011;22052;0.000;0.000;2023-04-03T04:58:25;3.22;;;0.90;;
35971;SDS011;22052;0.000;0.000;2023-04-03T05:01:04;1.92;;;0.70;;
35971;SDS011;22052;0.000;0.000;2023-04-03T05:03:31;5.35;;;0.95;;
35971;SDS011;22052;0.000;0.000;2023-04-03T05:05:57;3.55;;;0.80;;
35971;SDS011;22052;0.000;0.000;2023-04-03T05:08:23;3.35;;;0.80;;
35971;SDS011;22052;0.000;0.000;2023-04-03T05:10:49;7.68;;;0.90;;
35971;SDS011;22052;0.000;0.000;2023-04-03T05:13:16;4.80;;;0.75;;
35971;SDS011;22052;0.000;0.000;2023-04-03T05:15:42;7.18;;;1.05;;
35971;SDS011;22052;0.000;0.000;2023-04-03T05:18:08;6.43;;;1.10;;
35971;SDS011;22052;0.000;0.000;2023-04-03T05:20:34;7.18;;;1.10;;
35971;SDS011;22052;0.000;0.000;2023-04-03T05:23:02;4.10;;;0.75;;
35971;SDS011;22052;0.000;0.000;2023-04-03T05:25:28;6.50;;;0.93;;
35971;SDS011;22052;0.000;0.000;2023-04-03T05:27:54;3.90;;;1.05;;
35971;SDS011;22052;0.000;0.000;2023-04-03T05:30:20;4.03;;;0.93;;
35971;SDS011;22052;0.000;0.000;2023-04-03T05:32:46;6.05;;;1.00;;
35971;SDS011;22052;0.000;0.000;2023-04-03T05:35:13;5.90;;;1.13;;
35971;SDS011;22052;0.000;0.000;2023-04-03T05:37:39;5.75;;;0.93;;
35971;SDS011;22052;0.000;0.000;2023-04-03T05:40:06;3.72;;;1.00;;
35971;SDS011;22052;0.000;0.000;2023-04-03T05:42:32;6.55;;;1.08;;
35971;SDS011;22052;0.000;0.000;2023-04-03T05:44:59;4.57;;;0.98;;
35971;SDS011;22052;0.000;0.000;2023-04-03T05:47:25;4.60;;;0.98;;
35971;SDS011;22052;0.000;0.000;2023-04-03T05:49:51;3.42;;;0.68;;
35971;SDS011;22052;0.000;0.000;2023-04-03T05:52:20;2.80;;;0.60;;
35971;SDS011;22052;0.000;0.000;2023-04-03T05:54:46;4.30;;;0.82;;
35971;SDS011;22052;0.000;0.000;2023-04-03T05:57:13;4.15;;;0.80;;
35971;SDS011;22052;0.000;0.000;2023-04-03T05:59:41;3.45;;;0.90;;
35971;SDS011;22052;0.000;0.000;2023-04-03T06:02:08;2.35;;;0.70;;
35971;SDS011;22052;0.000;0.000;2023-04-03T06:04:35;4.80;;;0.93;;
35971;SDS011;22052;0.000;0.000;2023-04-03T06:07:01;5.93;;;0.90;;
35971;SDS011;22052;0.000;0.000;2023-04-03T06:09:28;6.05;;;0.77;;
35971;SDS011;22052;0.000;0.000;2023-04-03T06:11:54;4.47;;;0.85;;
35971;SDS011;22052;0.000;0.000;2023-04-03T06:14:21;2.58;;;1.00;;
35971;SDS011;22052;0.000;0.000;2023-04-03T06:16:47;3.22;;;0.90;;
35971;SDS011;22052;0.000;0.000;2023-04-03T06:19:13;5.68;;;0.90;;
35971;SDS011;22052;0.000;0.000;2023-04-03T06:21:39;2.97;;;0.85;;
35971;SDS011;22052;0.000;0.000;2023-04-03T06:24:05;2.20;;;0.60;;
35971;SDS011;22052;0.000;0.000;2023-04-03T06:26:32;3.88;;;0.98;;
35971;SDS011;22052;0.000;0.000;2023-04-03T06:28:58;4.85;;;0.93;;
35971;SDS011;22052;0.000;0.000;2023-04-03T06:31:25;4.03;;;0.82;;
35971;SDS011;22052;0.000;0.000;2023-04-03T06:33:51;6.80;;;0.90;;
35971;SDS011;22052;0.000;0.000;2023-04-03T06:36:18;2.30;;;0.60;;
35971;SDS011;22052;0.000;0.000;2023-04-03T06:38:45;4.97;;;1.00;;
35971;SDS011;22052;0.000;0.000;2023-04-03T06:41:11;5.88;;;1.05;;
35971;SDS011;22052;0.000;0.000;2023-04-03T06:43:38;4.68;;;0.82;;
35971;SDS011;22052;0.000;0.000;2023-04-03T06:46:04;6.60;;;0.80;;
35971;SDS011;22052;0.000;0.000;2023-04-03T06:48:30;5.57;;;1.02;;
35971;SDS011;22052;0.000;0.000;2023-04-03T06:50:56;5.18;;;1.25;;
35971;SDS011;22052;0.000;0.000;2023-04-03T06:53:22;2.58;;;0.80;;
35971;SDS011;22052;0.000;0.000;2023-04-03T06:55:48;3.13;;;0.90;;
35971;SDS011;22052;0.000;0.000;2023-04-03T06:58:15;5.60;;;0.85;;
35971;SDS011;22052;0.000;0.000;2023-04-03T07:00:42;2.85;;;0.93;;
35971;SDS011;22052;0.000;0.000;2023-04-03T07:03:08;7.68;;;1.10;;
35971;SDS011;22052;0.000;0.000;2023-04-03T07:05:34;4.57;;;0.80;;
35971;SDS011;22052;0.000;0.000;2023-04-03T07:08:01;4.90;;;0.98;;
35971;SDS011;22052;0.000;0.000;2023-04-03T07:10:27;2.83;;;1.05;;
35971;SDS011;22052;0.000;0.000;2023-04-03T07:12:53;4.03;;;1.00;;
35971;SDS011;22052;0.000;0.000;2023-04-03T07:15:19;4.75;;;0.88;;
35971;SDS011;22052;0.000;0.000;2023-04-03T07:17:45;4.90;;;0.82;;
35971;SDS011;22052;0.000;0.000;2023-04-03T07:20:11;6.18;;;1.10;;
35971;SDS011;22052;0.000;0.000;2023-04-03T07:22:38;8.40;;;1.20;;
35971;SDS011;22052;0.000;0.000;2023-04-03T07:25:04;5.13;;;0.85;;
35971;SDS011;22052;0.000;0.000;2023-04-03T07:27:32;4.65;;;0.70;;
35971;SDS011;22052;0.000;0.000;2023-04-03T07:29:58;4.85;;;0.93;;
35971;SDS011;22052;0.000;0.000;2023-04-03T07:32:24;4.40;;;0.90;;
35971;SDS011;22052;0.000;0.000;2023-04-03T07:34:50;5.35;;;1.02;;
35971;SDS011;22052;0.000;0.000;2023-04-03T07:37:16;5.15;;;1.00;;
35971;SDS011;22052;0.000;0.000;2023-04-03T07:39:43;4.40;;;0.90;;
35971;SDS011;22052;0.000;0.000;2023-04-03T07:42:10;7.03;;;1.13;;
35971;SDS011;22052;0.000;0.000;2023-04-03T07:44:37;4.85;;;0.88;;
35971;SDS011;22052;0.000;0.000;2023-04-03T07:47:03;6.75;;;1.00;;
35971;SDS011;22052;0.000;0.000;2023-04-03T07:49:29;7.95;;;1.33;;
35971;SDS011;22052;0.000;0.000;2023-04-03T07:51:56;5.05;;;1.13;;
35971;SDS011;22052;0.000;0.000;2023-04-03T07:54:23;4.20;;;1.02;;
35971;SDS011;22052;0.000;0.000;2023-04-03T07:56:49;4.30;;;1.50;;
35971;SDS011;22052;0.000;0.000;2023-04-03T07:59:15;5.90;;;1.23;;
35971;SDS011;22052;0.000;0.000;2023-04-03T08:01:42;8.38;;;1.20;;
35971;SDS011;22052;0.000;0.000;2023-04-03T08:04:08;5.03;;;0.90;;
35971;SDS011;22052;0.000;0.000;2023-04-03T08:06:35;5.25;;;1.08;;
35971;SDS011;22052;0.000;0.000;2023-04-03T08:09:02;4.95;;;1.00;;
35971;SDS011;22052;0.000;0.000;2023-04-03T08:11:29;3.50;;;0.95;;
35971;SDS011;22052;0.000;0.000;2023-04-03T08:13:56;5.07;;;1.15;;
35971;SDS011;22052;0.000;0.000;2023-04-03T08:16:22;7.07;;;1.40;;
35971;SDS011;22052;0.000;0.000;2023-04-03T08:18:52;3.75;;;1.10;;
35971;SDS011;22052;0.000;0.000;2023-04-03T08:21:18;5.53;;;0.95;;
35971;SDS011;22052;0.000;0.000;2023-04-03T08:23:44;2.00;;;0.90;;
35971;SDS011;22052;0.000;0.000;2023-04-03T08:26:11;4.80;;;0.98;;
35971;SDS011;22052;0.000;0.000;2023-04-03T08:28:38;2.40;;;0.82;;
35971;SDS011;22052;0.000;0.000;2023-04-03T08:31:06;4.18;;;1.10;;
35971;SDS011;22052;0.000;0.000;2023-04-03T08:33:34;5.88;;;1.20;;
35971;SDS011;22052;0.000;0.000;2023-04-03T08:36:02;4.35;;;1.05;;
35971;SDS011;22052;0.000;0.000;2023-04-03T08:38:28;4.85;;;0.98;;
35971;SDS011;22052;0.000;0.000;2023-04-03T08:41:04;3.83;;;1.08;;
35971;SDS011;22052;0.000;0.000;2023-04-03T08:44:15;4.90;;;0.93;;
35971;SDS011;22052;0.000;0.000;2023-04-03T08:46:22;6.88;;;1.08;;
35971;SDS011;22052;0.000;0.000;2023-04-03T08:48:51;4.22;;;0.90;;
35971;SDS011;22052;0.000;0.000;2023-04-03T08:51:18;4.95;;;0.82;;
35971;SDS011;22052;0.000;0.000;2023-04-03T08:53:56;4.07;;;1.38;;
35971;SDS011;22052;0.000;0.000;2023-04-03T08:56:24;3.45;;;1.13;;
35971;SDS011;22052;0.000;0.000;2023-04-03T08:58:52;6.47;;;1.33;;
35971;SDS011;22052;0.000;0.000;2023-04-03T09:03:47;3.53;;;0.90;;
35971;SDS011;22052;0.000;0.000;2023-04-03T09:06:21;6.30;;;1.20;;
35971;SDS011;22052;0.000;0.000;2023-04-03T09:14:02;3.83;;;0.85;;
35971;SDS011;22052;0.000;0.000;2023-04-03T09:17:02;5.60;;;1.08;;
35971;SDS011;22052;0.000;0.000;2023-04-03T09:24:46;4.82;;;1.10;;
35971;SDS011;22052;0.000;0.000;2023-04-03T09:27:13;5.85;;;1.08;;
35971;SDS011;22052;0.000;0.000;2023-04-03T09:29:40;3.47;;;1.00;;
35971;SDS011;22052;0.000;0.000;2023-04-03T09:32:18;4.63;;;1.17;;
35971;SDS011;22052;0.000;0.000;2023-04-03T09:34:44;7.88;;;1.08;;
35971;SDS011;22052;0.000;0.000;2023-04-03T09:37:11;4.13;;;1.10;;
35971;SDS011;22052;0.000;0.000;2023-04-03T09:39:57;3.75;;;0.68;;
35971;SDS011;22052;0.000;0.000;2023-04-03T09:42:24;3.03;;;0.80;;
35971;SDS011;22052;0.000;0.000;2023-04-03T09:44:54;2.72;;;1.00;;
35971;SDS011;22052;0.000;0.000;2023-04-03T09:47:25;5.65;;;0.77;;
35971;SDS011;22052;0.000;0.000;2023-04-03T09:52:38;3.67;;;1.08;;
35971;SDS011;22052;0.000;0.000;2023-04-03T09:55:06;2.67;;;0.70;;
35971;SDS011;22052;0.000;0.000;2023-04-03T09:57:33;5.72;;;0.98;;
35971;SDS011;22052;0.000;0.000;2023-04-03T10:00:00;6.00;;;1.10;;
35971;SDS011;22052;0.000;0.000;2023-04-03T10:05:02;5.82;;;1.05;;
35971;SDS011;22052;0.000;0.000;2023-04-03T10:07:30;4.63;;;0.80;;
35971;SDS011;22052;0.000;0.000;2023-04-03T10:09:58;4.05;;;1.20;;
35971;SDS011;22052;0.000;0.000;2023-04-03T10:12:25;3.00;;;0.90;;
35971;SDS011;22052;0.000;0.000;2023-04-03T10:14:55;4.75;;;1.15;;
35971;SDS011;22052;0.000;0.000;2023-04-03T10:17:42;4.43;;;1.10;;
35971;SDS011;22052;0.000;0.000;2023-04-03T10:27:59;9.05;;;1.25;;
35971;SDS011;22052;0.000;0.000;2023-04-03T10:33:20;8.20;;;1.10;;
35971;SDS011;22052;0.000;0.000;2023-04-03T10:43:22;4.90;;;0.85;;
35971;SDS011;22052;0.000;0.000;2023-04-03T10:46:00;4.38;;;0.90;;
35971;SDS011;22052;0.000;0.000;2023-04-03T10:51:12;4.40;;;1.40;;
35971;SDS011;22052;0.000;0.000;2023-04-03T10:58:40;5.47;;;0.93;;
35971;SDS011;22052;0.000;0.000;2023-04-03T11:01:19;7.10;;;1.30;;
35971;SDS011;22052;0.000;0.000;2023-04-03T11:03:47;6.68;;;1.00;;
35971;SDS011;22052;0.000;0.000;2023-04-03T11:06:15;4.40;;;1.15;;
35971;SDS011;22052;0.000;0.000;2023-04-03T11:11:10;4.47;;;0.90;;
35971;SDS011;22052;0.000;0.000;2023-04-03T11:13:41;5.75;;;1.38;;
35971;SDS011;22052;0.000;0.000;2023-04-03T11:16:09;4.47;;;0.90;;
35971;SDS011;22052;0.000;0.000;2023-04-03T11:18:39;5.25;;;1.17;;
35971;SDS011;22052;0.000;0.000;2023-04-03T11:23:36;4.78;;;1.30;;
35971;SDS011;22052;0.000;0.000;2023-04-03T11:26:11;4.43;;;0.88;;
35971;SDS011;22052;0.000;0.000;2023-04-03T11:28:37;2.63;;;0.80;;
35971;SDS011;22052;0.000;0.000;2023-04-03T11:33:40;5.35;;;1.27;;
35971;SDS011;22052;0.000;0.000;2023-04-03T11:36:26;5.03;;;0.90;;
35971;SDS011;22052;0.000;0.000;2023-04-03T11:38:55;4.05;;;0.70;;
35971;SDS011;22052;0.000;0.000;2023-04-03T11:41:29;7.07;;;0.90;;
35971;SDS011;22052;0.000;0.000;2023-04-03T11:44:00;4.13;;;0.73;;
35971;SDS011;22052;0.000;0.000;2023-04-03T11:51:56;2.72;;;0.95;;
35971;SDS011;22052;0.000;0.000;2023-04-03T11:59:51;7.07;;;1.00;;
35971;SDS011;22052;0.000;0.000;2023-04-03T12:02:34;3.97;;;1.10;;
35971;SDS011;22052;0.000;0.000;2023-04-03T12:08:10;3.88;;;0.98;;
35971;SDS011;22052;0.000;0.000;2023-04-03T12:10:32;4.57;;;0.98;;
35971;SDS011;22052;0.000;0.000;2023-04-03T12:12:58;2.65;;;0.75;;
35971;SDS011;22052;0.000;0.000;2023-04-03T12:20:54;5.45;;;0.90;;
35971;SDS011;22052;0.000;0.000;2023-04-03T12:23:24;3.83;;;0.85;;
35971;SDS011;22052;0.000;0.000;2023-04-03T12:25:51;5.57;;;1.00;;
35971;SDS011;22052;0.000;0.000;2023-04-03T12:28:17;3.67;;;1.00;;
35971;SDS011;22052;0.000;0.000;2023-04-03T12:30:43;4.18;;;1.00;;
35971;SDS011;22052;0.000;0.000;2023-04-03T12:33:17;4.15;;;1.25;;
35971;SDS011;22052;0.000;0.000;2023-04-03T12:36:06;3.97;;;0.80;;
35971;SDS011;22052;0.000;0.000;2023-04-03T12:41:30;2.33;;;0.70;;
35971;SDS011;22052;0.000;0.000;2023-04-03T12:46:45;3.53;;;0.80;;
35971;SDS011;22052;0.000;0.000;2023-04-03T12:49:22;3.85;;;0.80;;
35971;SDS011;22052;0.000;0.000;2023-04-03T12:51:48;8.07;;;1.05;;
35971;SDS011;22052;0.000;0.000;2023-04-03T12:54:19;3.20;;;0.90;;
35971;SDS011;22052;0.000;0.000;2023-04-03T12:56:47;2.78;;;0.90;;
35971;SDS011;22052;0.000;0.000;2023-04-03T12:59:14;3.47;;;1.08;;
35971;SDS011;22052;0.000;0.000;2023-04-03T13:01:42;2.65;;;0.75;;
35971;SDS011;22052;0.000;0.000;2023-04-03T13:04:09;5.45;;;1.08;;
35971;SDS011;22052;0.000;0.000;2023-04-03T13:06:40;5.57;;;0.90;;
35971;SDS011;22052;0.000;0.000;2023-04-03T13:09:17;5.20;;;0.90;;
35971;SDS011;22052;0.000;0.000;2023-04-03T13:11:46;5.93;;;0.80;;
35971;SDS011;22052;0.000;0.000;2023-04-03T13:14:15;3.28;;;0.85;;
35971;SDS011;22052;0.000;0.000;2023-04-03T13:16:42;4.72;;;0.75;;
35971;SDS011;22052;0.000;0.000;2023-04-03T13:19:17;3.25;;;0.85;;
35971;SDS011;22052;0.000;0.000;2023-04-03T13:21:44;7.85;;;1.10;;
35971;SDS011;22052;0.000;0.000;2023-04-03T13:24:11;2.25;;;0.70;;
35971;SDS011;22052;0.000;0.000;2023-04-03T13:26:38;5.22;;;1.23;;
35971;SDS011;22052;0.000;0.000;2023-04-03T13:29:05;6.90;;;0.75;;
35971;SDS011;22052;0.000;0.000;2023-04-03T13:31:33;4.68;;;0.70;;
35971;SDS011;22052;0.000;0.000;2023-04-03T13:34:17;4.22;;;0.98;;
35971;SDS011;22052;0.000;0.000;2023-04-03T13:36:45;3.47;;;0.90;;
35971;SDS011;22052;0.000;0.000;2023-04-03T13:41:41;6.25;;;1.00;;
35971;SDS011;22052;0.000;0.000;2023-04-03T13:44:41;6.35;;;0.80;;
35971;SDS011;22052;0.000;0.000;2023-04-03T13:47:14;4.35;;;1.10;;
35971;SDS011;22052;0.000;0.000;2023-04-03T13:49:42;3.35;;;0.80;;
35971;SDS011;22052;0.000;0.000;2023-04-03T13:52:21;4.97;;;0.98;;
35971;SDS011;22052;0.000;0.000;2023-04-03T13:54:48;6.30;;;0.80;;
35971;SDS011;22052;0.000;0.000;2023-04-03T13:57:17;2.92;;;1.00;;
35971;SDS011;22052;0.000;0.000;2023-04-03T13:59:43;3.95;;;1.00;;
35971;SDS011;22052;0.000;0.000;2023-04-03T14:02:12;4.90;;;0.80;;
35971;SDS011;22052;0.000;0.000;2023-04-03T14:07:11;4.03;;;0.75;;
35971;SDS011;22052;0.000;0.000;2023-04-03T14:09:37;5.65;;;0.90;;
35971;SDS011;22052;0.000;0.000;2023-04-03T14:12:08;6.38;;;0.95;;
35971;SDS011;22052;0.000;0.000;2023-04-03T14:14:35;3.00;;;0.70;;
35971;SDS011;22052;0.000;0.000;2023-04-03T14:17:03;3.75;;;0.88;;
35971;SDS011;22052;0.000;0.000;2023-04-03T14:19:36;7.78;;;0.88;;
35971;SDS011;22052;0.000;0.000;2023-04-03T14:24:43;3.67;;;0.80;;
35971;SDS011;22052;0.000;0.000;2023-04-03T14:27:29;4.25;;;1.00;;
35971;SDS011;22052;0.000;0.000;2023-04-03T14:29:58;5.32;;;1.13;;
35971;SDS011;22052;0.000;0.000;2023-04-03T14:32:25;2.45;;;0.98;;
35971;SDS011;22052;0.000;0.000;2023-04-03T14:34:51;2.85;;;0.77;;
35971;SDS011;22052;0.000;0.000;2023-04-03T14:37:20;5.13;;;0.82;;
35971;SDS011;22052;0.000;0.000;2023-04-03T14:39:47;7.05;;;1.23;;
35971;SDS011;22052;0.000;0.000;2023-04-03T14:42:17;5.93;;;0.70;;
35971;SDS011;22052;0.000;0.000;2023-04-03T14:44:44;5.70;;;0.93;;
35971;SDS011;22052;0.000;0.000;2023-04-03T14:47:11;5.32;;;0.80;;
35971;SDS011;22052;0.000;0.000;2023-04-03T14:49:37;5.35;;;1.23;;
35971;SDS011;22052;0.000;0.000;2023-04-03T14:52:03;2.42;;;0.80;;
35971;SDS011;22052;0.000;0.000;2023-04-03T14:54:30;4.10;;;0.80;;
35971;SDS011;22052;0.000;0.000;2023-04-03T14:56:57;3.75;;;1.00;;
35971;SDS011;22052;0.000;0.000;2023-04-03T14:59:23;8.10;;;1.00;;
35971;SDS011;22052;0.000;0.000;2023-04-03T15:01:50;4.95;;;0.80;;
35971;SDS011;22052;0.000;0.000;2023-04-03T15:04:17;4.88;;;0.85;;
35971;SDS011;22052;0.000;0.000;2023-04-03T15:06:43;3.00;;;0.80;;
35971;SDS011;22052;0.000;0.000;2023-04-03T15:09:20;5.75;;;0.80;;
35971;SDS011;22052;0.000;0.000;2023-04-03T15:11:47;3.92;;;0.85;;
35971;SDS011;22052;0.000;0.000;2023-04-03T15:14:13;4.85;;;0.85;;
35971;SDS011;22052;0.000;0.000;2023-04-03T15:16:39;4.40;;;0.98;;
35971;SDS011;22052;0.000;0.000;2023-04-03T15:19:05;4.20;;;1.00;;
35971;SDS011;22052;0.000;0.000;2023-04-03T15:21:31;2.88;;;1.00;;
35971;SDS011;22052;0.000;0.000;2023-04-03T15:23:57;3.90;;;0.77;;
35971;SDS011;22052;0.000;0.000;2023-04-03T15:26:24;4.18;;;0.90;;
35971;SDS011;22052;0.000;0.000;2023-04-03T15:28:50;3.22;;;0.98;;
35971;SDS011;22052;0.000;0.000;2023-04-03T15:31:17;4.57;;;0.77;;
35971;SDS011;22052;0.000;0.000;2023-04-03T15:33:43;3.03;;;0.95;;
35971;SDS011;22052;0.000;0.000;2023-04-03T15:36:09;4.68;;;1.10;;
35971;SDS011;22052;0.000;0.000;2023-04-03T15:38:35;2.47;;;0.65;;
35971;SDS011;22052;0.000;0.000;2023-04-03T15:41:03;4.45;;;0.80;;
35971;SDS011;22052;0.000;0.000;2023-04-03T15:43:30;3.95;;;0.65;;
35971;SDS011;22052;0.000;0.000;2023-04-03T15:45:59;4.18;;;0.88;;
35971;SDS011;22052;0.000;0.000;2023-04-03T15:48:25;3.10;;;0.75;;
35971;SDS011;22052;0.000;0.000;2023-04-03T15:50:51;4.63;;;1.08;;
35971;SDS011;22052;0.000;0.000;2023-04-03T15:53:18;2.50;;;0.60;;
35971;SDS011;22052;0.000;0.000;2023-04-03T15:55:44;2.65;;;0.80;;
35971;SDS011;22052;0.000;0.000;2023-04-03T15:58:10;1.83;;;0.70;;
35971;SDS011;22052;0.000;0.000;2023-04-03T16:00:37;3.92;;;0.90;;
35971;SDS011;22052;0.000;0.000;2023-04-03T16:03:08;3.28;;;1.13;;
35971;SDS011;22052;0.000;0.000;2023-04-03T16:05:35;3.27;;;0.70;;
35971;SDS011;22052;0.000;0.000;2023-04-03T16:08:02;5.68;;;0.88;;
35971;SDS011;22052;0.000;0.000;2023-04-03T16:10:29;3.20;;;1.00;;
35971;SDS011;22052;0.000;0.000;2023-04-03T16:12:56;2.97;;;0.90;;
35971;SDS011;22052;0.000;0.000;2023-04-03T16:15:22;3.05;;;0.75;;
35971;SDS011;22052;0.000;0.000;2023-04-03T16:17:49;5.68;;;1.20;;
35971;SDS011;22052;0.000;0.000;2023-04-03T16:20:16;5.90;;;1.02;;
35971;SDS011;22052;0.000;0.000;2023-04-03T16:22:43;5.55;;;1.20;;
35971;SDS011;22052;0.000;0.000;2023-04-03T16:25:10;3.15;;;0.90;;
35971;SDS011;22052;0.000;0.000;2023-04-03T16:27:36;3.88;;;0.93;;
35971;SDS011;22052;0.000;0.000;2023-04-03T16:30:03;2.65;;;0.80;;
35971;SDS011;22052;0.000;0.000;2023-04-03T16:32:30;5.80;;;0.90;;
35971;SDS011;22052;0.000;0.000;2023-04-03T16:34:57;3.70;;;0.60;;
35971;SDS011;22052;0.000;0.000;2023-04-03T16:37:23;3.88;;;1.15;;